sensor_id;sensor_type;location;lat;lon;timestamp;P1;durP1;ratioP1;P2;durP2;ratioP2
71558;SDS011;59382;43.852;25.952;2023-03-14T00:00:55;3.95;;;2.42;;
71558;SDS011;59382;43.852;25.952;2023-03-14T00:03:21;5.38;;;2.17;;
71558;SDS011;59382;43.852;25.952;2023-03-14T00:05:46;3.25;;;2.28;;
71558;SDS011;59382;43.852;25.952;2023-03-14T00:08:15;2.90;;;2.03;;
71558;SDS011;59382;43.852;25.952;2023-03-14T00:10:40;3.90;;;2.22;;
71558;SDS011;59382;43.852;25.952;2023-03-14T00:13:06;3.90;;;2.60;;
71558;SDS011;59382;43.852;25.952;2023-03-14T00:15:32;3.45;;;1.90;;
71558;SDS011;59382;43.852;25.952;2023-03-14T00:17:59;3.60;;;2.40;;
71558;SDS011;59382;43.852;25.952;2023-03-14T00:20:24;3.67;;;2.10;;
71558;SDS011;59382;43.852;25.952;2023-03-14T00:22:50;2.75;;;1.60;;
71558;SDS011;59382;43.852;25.952;2023-03-14T00:25:15;2.53;;;1.40;;
71558;SDS011;59382;43.852;25.952;2023-03-14T00:27:41;2.15;;;1.35;;
71558;SDS011;59382;43.852;25.952;2023-03-14T00:30:07;2.15;;;1.55;;
71558;SDS011;59382;43.852;25.952;2023-03-14T00:32:33;1.90;;;1.50;;
71558;SDS011;59382;43.852;25.952;2023-03-14T00:34:58;3.95;;;2.20;;
71558;SDS011;59382;43.852;25.952;2023-03-14T00:37:25;2.38;;;1.98;;
71558;SDS011;59382;43.852;25.952;2023-03-14T00:39:51;2.72;;;2.17;;
71558;SDS011;59382;43.852;25.952;2023-03-14T00:42:17;2.60;;;2.00;;
71558;SDS011;59382;43.852;25.952;2023-03-14T00:44:42;5.03;;;2.47;;
71558;SDS011;59382;43.852;25.952;2023-03-14T00:47:08;3.60;;;2.03;;
71558;SDS011;59382;43.852;25.952;2023-03-14T00:49:33;1.98;;;1.67;;
71558;SDS011;59382;43.852;25.952;2023-03-14T00:51:59;2.47;;;2.13;;
71558;SDS011;59382;43.852;25.952;2023-03-14T00:54:25;4.30;;;1.80;;
71558;SDS011;59382;43.852;25.952;2023-03-14T00:56:50;3.45;;;1.67;;
71558;SDS011;59382;43.852;25.952;2023-03-14T00:59:16;5.50;;;2.80;;
71558;SDS011;59382;43.852;25.952;2023-03-14T01:01:42;4.07;;;2.78;;
71558;SDS011;59382;43.852;25.952;2023-03-14T01:04:07;3.22;;;2.85;;
71558;SDS011;59382;43.852;25.952;2023-03-14T01:06:33;5.07;;;2.70;;
71558;SDS011;59382;43.852;25.952;2023-03-14T01:08:58;4.32;;;2.55;;
71558;SDS011;59382;43.852;25.952;2023-03-14T01:11:25;4.38;;;2.72;;
71558;SDS011;59382;43.852;25.952;2023-03-14T01:13:53;4.13;;;2.55;;
71558;SDS011;59382;43.852;25.952;2023-03-14T01:16:19;5.60;;;3.33;;
71558;SDS011;59382;43.852;25.952;2023-03-14T01:18:47;5.13;;;2.97;;
71558;SDS011;59382;43.852;25.952;2023-03-14T01:21:14;3.60;;;2.75;;
71558;SDS011;59382;43.852;25.952;2023-03-14T01:23:45;4.97;;;2.45;;
71558;SDS011;59382;43.852;25.952;2023-03-14T01:26:12;4.00;;;2.88;;
71558;SDS011;59382;43.852;25.952;2023-03-14T01:28:40;5.47;;;3.33;;
71558;SDS011;59382;43.852;25.952;2023-03-14T01:31:07;7.72;;;2.78;;
71558;SDS011;59382;43.852;25.952;2023-03-14T01:33:34;6.40;;;3.20;;
71558;SDS011;59382;43.852;25.952;2023-03-14T01:36:00;3.42;;;2.72;;
71558;SDS011;59382;43.852;25.952;2023-03-14T01:38:28;3.90;;;2.13;;
71558;SDS011;59382;43.852;25.952;2023-03-14T01:40:54;4.95;;;2.28;;
71558;SDS011;59382;43.852;25.952;2023-03-14T01:43:20;3.17;;;2.30;;
71558;SDS011;59382;43.852;25.952;2023-03-14T01:57:07;5.45;;;2.63;;
71558;SDS011;59382;43.852;25.952;2023-03-14T01:59:36;3.55;;;2.30;;
71558;SDS011;59382;43.852;25.952;2023-03-14T02:02:04;6.72;;;2.33;;
71558;SDS011;59382;43.852;25.952;2023-03-14T02:04:33;3.72;;;2.30;;
71558;SDS011;59382;43.852;25.952;2023-03-14T02:09:44;4.18;;;3.03;;
71558;SDS011;59382;43.852;25.952;2023-03-14T02:12:10;3.08;;;2.33;;
71558;SDS011;59382;43.852;25.952;2023-03-14T02:14:39;7.00;;;3.28;;
71558;SDS011;59382;43.852;25.952;2023-03-14T02:17:05;6.20;;;3.30;;
71558;SDS011;59382;43.852;25.952;2023-03-14T02:19:46;3.20;;;2.90;;
71558;SDS011;59382;43.852;25.952;2023-03-14T02:22:35;6.30;;;3.20;;
71558;SDS011;59382;43.852;25.952;2023-03-14T02:28:04;3.47;;;2.60;;
71558;SDS011;59382;43.852;25.952;2023-03-14T02:30:30;5.22;;;2.63;;
71558;SDS011;59382;43.852;25.952;2023-03-14T02:33:04;6.10;;;3.05;;
71558;SDS011;59382;43.852;25.952;2023-03-14T02:35:42;4.55;;;2.60;;
71558;SDS011;59382;43.852;25.952;2023-03-14T02:40:46;4.95;;;2.50;;
71558;SDS011;59382;43.852;25.952;2023-03-14T02:43:12;3.63;;;2.83;;
71558;SDS011;59382;43.852;25.952;2023-03-14T02:45:42;7.38;;;3.10;;
71558;SDS011;59382;43.852;25.952;2023-03-14T02:50:50;7.57;;;3.67;;
71558;SDS011;59382;43.852;25.952;2023-03-14T02:53:20;6.45;;;3.47;;
71558;SDS011;59382;43.852;25.952;2023-03-14T02:55:49;5.68;;;3.38;;
71558;SDS011;59382;43.852;25.952;2023-03-14T02:58:15;6.05;;;3.28;;
71558;SDS011;59382;43.852;25.952;2023-03-14T03:00:41;5.18;;;3.13;;
71558;SDS011;59382;43.852;25.952;2023-03-14T03:03:07;5.82;;;3.55;;
71558;SDS011;59382;43.852;25.952;2023-03-14T03:05:33;6.15;;;3.60;;
71558;SDS011;59382;43.852;25.952;2023-03-14T03:07:59;6.15;;;3.08;;
71558;SDS011;59382;43.852;25.952;2023-03-14T03:10:24;7.75;;;3.78;;
71558;SDS011;59382;43.852;25.952;2023-03-14T03:12:50;4.53;;;3.30;;
71558;SDS011;59382;43.852;25.952;2023-03-14T03:15:16;5.60;;;3.25;;
71558;SDS011;59382;43.852;25.952;2023-03-14T03:17:42;6.80;;;3.83;;
71558;SDS011;59382;43.852;25.952;2023-03-14T03:20:08;6.25;;;3.83;;
71558;SDS011;59382;43.852;25.952;2023-03-14T03:22:35;8.48;;;4.13;;
71558;SDS011;59382;43.852;25.952;2023-03-14T03:25:02;22.08;;;5.70;;
71558;SDS011;59382;43.852;25.952;2023-03-14T03:27:29;10.70;;;4.30;;
71558;SDS011;59382;43.852;25.952;2023-03-14T03:29:59;5.13;;;3.28;;
71558;SDS011;59382;43.852;25.952;2023-03-14T03:32:25;4.85;;;3.22;;
71558;SDS011;59382;43.852;25.952;2023-03-14T03:34:51;6.13;;;3.60;;
71558;SDS011;59382;43.852;25.952;2023-03-14T03:37:17;5.90;;;3.63;;
71558;SDS011;59382;43.852;25.952;2023-03-14T03:39:43;9.20;;;3.92;;
71558;SDS011;59382;43.852;25.952;2023-03-14T03:42:08;5.07;;;3.13;;
71558;SDS011;59382;43.852;25.952;2023-03-14T03:44:35;4.43;;;2.70;;
71558;SDS011;59382;43.852;25.952;2023-03-14T03:47:00;5.43;;;2.78;;
71558;SDS011;59382;43.852;25.952;2023-03-14T03:49:29;6.97;;;3.00;;
71558;SDS011;59382;43.852;25.952;2023-03-14T03:51:55;5.47;;;3.05;;
71558;SDS011;59382;43.852;25.952;2023-03-14T03:54:21;4.72;;;3.03;;
71558;SDS011;59382;43.852;25.952;2023-03-14T03:56:47;7.05;;;3.42;;
71558;SDS011;59382;43.852;25.952;2023-03-14T03:59:12;6.30;;;3.38;;
71558;SDS011;59382;43.852;25.952;2023-03-14T04:01:38;4.78;;;3.28;;
71558;SDS011;59382;43.852;25.952;2023-03-14T04:04:04;8.25;;;4.25;;
71558;SDS011;59382;43.852;25.952;2023-03-14T04:06:29;7.20;;;3.45;;
71558;SDS011;59382;43.852;25.952;2023-03-14T04:08:55;6.53;;;3.35;;
71558;SDS011;59382;43.852;25.952;2023-03-14T04:11:20;7.43;;;4.07;;
71558;SDS011;59382;43.852;25.952;2023-03-14T04:13:46;6.00;;;3.42;;
71558;SDS011;59382;43.852;25.952;2023-03-14T04:16:18;7.00;;;3.75;;
71558;SDS011;59382;43.852;25.952;2023-03-14T04:18:46;4.25;;;3.53;;
71558;SDS011;59382;43.852;25.952;2023-03-14T04:21:12;7.20;;;4.05;;
71558;SDS011;59382;43.852;25.952;2023-03-14T04:23:38;5.07;;;3.40;;
71558;SDS011;59382;43.852;25.952;2023-03-14T04:26:07;5.85;;;3.47;;
71558;SDS011;59382;43.852;25.952;2023-03-14T04:28:32;7.10;;;3.35;;
71558;SDS011;59382;43.852;25.952;2023-03-14T04:31:06;7.75;;;4.30;;
71558;SDS011;59382;43.852;25.952;2023-03-14T04:33:32;9.65;;;4.93;;
71558;SDS011;59382;43.852;25.952;2023-03-14T04:35:58;9.07;;;4.00;;
71558;SDS011;59382;43.852;25.952;2023-03-14T04:38:23;9.95;;;4.85;;
71558;SDS011;59382;43.852;25.952;2023-03-14T04:40:49;14.55;;;4.00;;
71558;SDS011;59382;43.852;25.952;2023-03-14T04:43:15;7.65;;;3.50;;
71558;SDS011;59382;43.852;25.952;2023-03-14T04:45:41;4.55;;;3.33;;
71558;SDS011;59382;43.852;25.952;2023-03-14T04:48:07;11.07;;;3.97;;
71558;SDS011;59382;43.852;25.952;2023-03-14T04:50:32;6.90;;;4.20;;
71558;SDS011;59382;43.852;25.952;2023-03-14T04:52:58;7.93;;;3.50;;
71558;SDS011;59382;43.852;25.952;2023-03-14T04:55:23;11.70;;;4.03;;
71558;SDS011;59382;43.852;25.952;2023-03-14T04:57:49;7.95;;;4.45;;
71558;SDS011;59382;43.852;25.952;2023-03-14T05:00:14;18.25;;;5.13;;
71558;SDS011;59382;43.852;25.952;2023-03-14T05:02:43;9.07;;;3.90;;
71558;SDS011;59382;43.852;25.952;2023-03-14T05:05:09;14.90;;;4.05;;
71558;SDS011;59382;43.852;25.952;2023-03-14T05:07:35;10.32;;;3.72;;
71558;SDS011;59382;43.852;25.952;2023-03-14T05:10:00;7.45;;;3.00;;
71558;SDS011;59382;43.852;25.952;2023-03-14T05:12:26;8.32;;;2.90;;
71558;SDS011;59382;43.852;25.952;2023-03-14T05:14:52;5.30;;;3.28;;
71558;SDS011;59382;43.852;25.952;2023-03-14T05:17:17;5.05;;;3.63;;
71558;SDS011;59382;43.852;25.952;2023-03-14T05:19:43;7.60;;;3.60;;
71558;SDS011;59382;43.852;25.952;2023-03-14T05:22:09;22.65;;;4.05;;
71558;SDS011;59382;43.852;25.952;2023-03-14T05:24:35;7.25;;;3.78;;
71558;SDS011;59382;43.852;25.952;2023-03-14T05:27:01;17.65;;;4.82;;
71558;SDS011;59382;43.852;25.952;2023-03-14T05:29:30;12.60;;;4.53;;
71558;SDS011;59382;43.852;25.952;2023-03-14T05:31:56;11.98;;;3.70;;
71558;SDS011;59382;43.852;25.952;2023-03-14T05:34:21;11.77;;;4.07;;
71558;SDS011;59382;43.852;25.952;2023-03-14T05:36:47;12.13;;;4.43;;
71558;SDS011;59382;43.852;25.952;2023-03-14T05:39:12;10.50;;;5.25;;
71558;SDS011;59382;43.852;25.952;2023-03-14T05:41:38;7.30;;;3.90;;
71558;SDS011;59382;43.852;25.952;2023-03-14T05:44:03;7.82;;;3.17;;
71558;SDS011;59382;43.852;25.952;2023-03-14T05:46:29;6.18;;;3.60;;
71558;SDS011;59382;43.852;25.952;2023-03-14T05:48:58;10.75;;;4.85;;
71558;SDS011;59382;43.852;25.952;2023-03-14T05:51:24;8.40;;;4.57;;
71558;SDS011;59382;43.852;25.952;2023-03-14T05:53:50;17.08;;;5.45;;
71558;SDS011;59382;43.852;25.952;2023-03-14T05:56:15;7.03;;;4.15;;
71558;SDS011;59382;43.852;25.952;2023-03-14T05:58:41;12.70;;;5.10;;
71558;SDS011;59382;43.852;25.952;2023-03-14T06:01:07;12.43;;;4.20;;
71558;SDS011;59382;43.852;25.952;2023-03-14T06:03:33;12.48;;;4.90;;
71558;SDS011;59382;43.852;25.952;2023-03-14T06:05:59;24.15;;;6.22;;
71558;SDS011;59382;43.852;25.952;2023-03-14T06:08:25;10.38;;;5.95;;
71558;SDS011;59382;43.852;25.952;2023-03-14T06:10:51;53.17;;;7.53;;
71558;SDS011;59382;43.852;25.952;2023-03-14T06:13:17;13.70;;;5.50;;
71558;SDS011;59382;43.852;25.952;2023-03-14T06:15:44;18.77;;;5.97;;
71558;SDS011;59382;43.852;25.952;2023-03-14T06:18:09;8.45;;;5.18;;
71558;SDS011;59382;43.852;25.952;2023-03-14T06:20:38;13.95;;;5.30;;
71558;SDS011;59382;43.852;25.952;2023-03-14T06:23:07;8.75;;;5.10;;
71558;SDS011;59382;43.852;25.952;2023-03-14T06:25:34;12.85;;;5.30;;
71558;SDS011;59382;43.852;25.952;2023-03-14T06:28:00;7.68;;;4.88;;
71558;SDS011;59382;43.852;25.952;2023-03-14T06:30:26;15.00;;;4.75;;
71558;SDS011;59382;43.852;25.952;2023-03-14T06:32:52;14.82;;;4.80;;
71558;SDS011;59382;43.852;25.952;2023-03-14T06:35:17;8.43;;;4.03;;
71558;SDS011;59382;43.852;25.952;2023-03-14T06:37:43;19.92;;;6.10;;
71558;SDS011;59382;43.852;25.952;2023-03-14T06:40:09;22.55;;;5.28;;
71558;SDS011;59382;43.852;25.952;2023-03-14T06:42:37;6.32;;;4.18;;
71558;SDS011;59382;43.852;25.952;2023-03-14T06:45:03;11.73;;;5.32;;
71558;SDS011;59382;43.852;25.952;2023-03-14T06:47:31;14.05;;;6.05;;
71558;SDS011;59382;43.852;25.952;2023-03-14T06:49:56;31.92;;;9.65;;
71558;SDS011;59382;43.852;25.952;2023-03-14T06:52:22;22.88;;;8.07;;
71558;SDS011;59382;43.852;25.952;2023-03-14T06:54:47;17.40;;;7.50;;
71558;SDS011;59382;43.852;25.952;2023-03-14T06:57:12;21.50;;;8.45;;
71558;SDS011;59382;43.852;25.952;2023-03-14T06:59:38;18.50;;;7.90;;
71558;SDS011;59382;43.852;25.952;2023-03-14T07:02:03;16.63;;;8.60;;
71558;SDS011;59382;43.852;25.952;2023-03-14T07:04:29;21.77;;;6.40;;
71558;SDS011;59382;43.852;25.952;2023-03-14T07:06:54;15.93;;;6.10;;
71558;SDS011;59382;43.852;25.952;2023-03-14T07:09:20;12.13;;;5.55;;
71558;SDS011;59382;43.852;25.952;2023-03-14T07:11:45;22.00;;;6.53;;
71558;SDS011;59382;43.852;25.952;2023-03-14T07:14:11;17.25;;;6.65;;
71558;SDS011;59382;43.852;25.952;2023-03-14T07:16:36;17.08;;;5.00;;
71558;SDS011;59382;43.852;25.952;2023-03-14T07:19:02;16.50;;;4.65;;
71558;SDS011;59382;43.852;25.952;2023-03-14T07:21:28;7.35;;;3.92;;
71558;SDS011;59382;43.852;25.952;2023-03-14T07:23:54;18.75;;;3.70;;
71558;SDS011;59382;43.852;25.952;2023-03-14T07:26:20;15.18;;;5.32;;
71558;SDS011;59382;43.852;25.952;2023-03-14T07:28:45;12.27;;;3.65;;
71558;SDS011;59382;43.852;25.952;2023-03-14T07:31:11;11.00;;;3.58;;
71558;SDS011;59382;43.852;25.952;2023-03-14T07:33:36;13.77;;;4.30;;
71558;SDS011;59382;43.852;25.952;2023-03-14T07:36:02;13.65;;;4.25;;
71558;SDS011;59382;43.852;25.952;2023-03-14T07:38:28;8.10;;;3.80;;
71558;SDS011;59382;43.852;25.952;2023-03-14T07:41:01;6.88;;;4.30;;
71558;SDS011;59382;43.852;25.952;2023-03-14T07:43:27;9.98;;;4.00;;
71558;SDS011;59382;43.852;25.952;2023-03-14T07:45:52;12.77;;;5.82;;
71558;SDS011;59382;43.852;25.952;2023-03-14T07:48:18;10.60;;;5.20;;
71558;SDS011;59382;43.852;25.952;2023-03-14T07:50:47;13.98;;;6.47;;
71558;SDS011;59382;43.852;25.952;2023-03-14T07:53:13;10.35;;;4.63;;
71558;SDS011;59382;43.852;25.952;2023-03-14T07:55:39;14.32;;;4.97;;
71558;SDS011;59382;43.852;25.952;2023-03-14T07:58:05;13.23;;;4.35;;
71558;SDS011;59382;43.852;25.952;2023-03-14T08:00:31;8.55;;;3.65;;
71558;SDS011;59382;43.852;25.952;2023-03-14T08:02:57;7.78;;;3.35;;
71558;SDS011;59382;43.852;25.952;2023-03-14T08:05:23;13.15;;;3.88;;
71558;SDS011;59382;43.852;25.952;2023-03-14T08:07:48;10.18;;;3.88;;
71558;SDS011;59382;43.852;25.952;2023-03-14T08:10:14;12.02;;;4.43;;
71558;SDS011;59382;43.852;25.952;2023-03-14T08:12:47;17.67;;;4.22;;
71558;SDS011;59382;43.852;25.952;2023-03-14T08:15:19;14.77;;;4.78;;
71558;SDS011;59382;43.852;25.952;2023-03-14T08:17:45;10.30;;;4.50;;
71558;SDS011;59382;43.852;25.952;2023-03-14T08:20:23;7.90;;;3.50;;
71558;SDS011;59382;43.852;25.952;2023-03-14T08:22:51;5.47;;;3.53;;
71558;SDS011;59382;43.852;25.952;2023-03-14T08:25:17;6.40;;;3.25;;
71558;SDS011;59382;43.852;25.952;2023-03-14T08:27:43;6.32;;;3.20;;
71558;SDS011;59382;43.852;25.952;2023-03-14T08:30:10;6.93;;;3.20;;
71558;SDS011;59382;43.852;25.952;2023-03-14T08:32:37;12.45;;;3.80;;
71558;SDS011;59382;43.852;25.952;2023-03-14T08:35:03;8.23;;;3.97;;
71558;SDS011;59382;43.852;25.952;2023-03-14T08:37:33;16.13;;;4.03;;
71558;SDS011;59382;43.852;25.952;2023-03-14T08:40:00;11.18;;;4.03;;
71558;SDS011;59382;43.852;25.952;2023-03-14T08:42:25;17.02;;;3.47;;
71558;SDS011;59382;43.852;25.952;2023-03-14T08:44:51;13.10;;;3.83;;
71558;SDS011;59382;43.852;25.952;2023-03-14T08:47:17;12.98;;;3.40;;
71558;SDS011;59382;43.852;25.952;2023-03-14T08:49:43;14.82;;;3.78;;
71558;SDS011;59382;43.852;25.952;2023-03-14T08:52:08;9.50;;;3.22;;
71558;SDS011;59382;43.852;25.952;2023-03-14T08:54:34;7.40;;;3.25;;
71558;SDS011;59382;43.852;25.952;2023-03-14T08:57:00;5.55;;;3.03;;
71558;SDS011;59382;43.852;25.952;2023-03-14T08:59:25;6.55;;;2.72;;
71558;SDS011;59382;43.852;25.952;2023-03-14T09:01:51;5.65;;;2.95;;
71558;SDS011;59382;43.852;25.952;2023-03-14T09:04:20;28.27;;;10.63;;
71558;SDS011;59382;43.852;25.952;2023-03-14T09:06:46;30.67;;;14.63;;
71558;SDS011;59382;43.852;25.952;2023-03-14T09:09:12;44.33;;;21.55;;
71558;SDS011;59382;43.852;25.952;2023-03-14T09:11:38;28.80;;;12.85;;
71558;SDS011;59382;43.852;25.952;2023-03-14T09:14:04;11.18;;;6.63;;
71558;SDS011;59382;43.852;25.952;2023-03-14T09:16:30;4.45;;;2.88;;
71558;SDS011;59382;43.852;25.952;2023-03-14T09:18:55;7.85;;;3.08;;
71558;SDS011;59382;43.852;25.952;2023-03-14T09:21:25;5.20;;;2.55;;
71558;SDS011;59382;43.852;25.952;2023-03-14T09:23:51;4.10;;;2.38;;
71558;SDS011;59382;43.852;25.952;2023-03-14T09:26:16;3.65;;;2.28;;
71558;SDS011;59382;43.852;25.952;2023-03-14T09:28:42;6.20;;;2.13;;
71558;SDS011;59382;43.852;25.952;2023-03-14T09:31:08;6.50;;;2.40;;
71558;SDS011;59382;43.852;25.952;2023-03-14T09:33:36;7.03;;;3.22;;
71558;SDS011;59382;43.852;25.952;2023-03-14T09:36:02;7.95;;;2.35;;
71558;SDS011;59382;43.852;25.952;2023-03-14T09:38:29;6.03;;;2.42;;
71558;SDS011;59382;43.852;25.952;2023-03-14T09:40:54;8.77;;;2.40;;
71558;SDS011;59382;43.852;25.952;2023-03-14T09:43:23;7.35;;;2.58;;
71558;SDS011;59382;43.852;25.952;2023-03-14T09:45:52;3.40;;;2.47;;
71558;SDS011;59382;43.852;25.952;2023-03-14T09:48:22;8.18;;;2.63;;
71558;SDS011;59382;43.852;25.952;2023-03-14T09:50:53;6.00;;;2.67;;
71558;SDS011;59382;43.852;25.952;2023-03-14T09:53:21;7.40;;;2.67;;
71558;SDS011;59382;43.852;25.952;2023-03-14T09:55:51;8.77;;;2.58;;
71558;SDS011;59382;43.852;25.952;2023-03-14T09:58:21;7.25;;;2.38;;
71558;SDS011;59382;43.852;25.952;2023-03-14T10:00:52;12.20;;;2.10;;
71558;SDS011;59382;43.852;25.952;2023-03-14T10:03:29;2.80;;;1.88;;
71558;SDS011;59382;43.852;25.952;2023-03-14T10:05:57;5.25;;;1.58;;
71558;SDS011;59382;43.852;25.952;2023-03-14T10:08:23;8.43;;;2.10;;
71558;SDS011;59382;43.852;25.952;2023-03-14T10:10:49;3.53;;;1.73;;
71558;SDS011;59382;43.852;25.952;2023-03-14T10:13:18;10.20;;;2.63;;
71558;SDS011;59382;43.852;25.952;2023-03-14T10:15:53;4.57;;;2.20;;
71558;SDS011;59382;43.852;25.952;2023-03-14T10:18:21;8.68;;;2.95;;
71558;SDS011;59382;43.852;25.952;2023-03-14T10:20:49;9.40;;;2.25;;
71558;SDS011;59382;43.852;25.952;2023-03-14T10:23:27;10.20;;;1.98;;
71558;SDS011;59382;43.852;25.952;2023-03-14T10:25:59;4.47;;;2.38;;
71558;SDS011;59382;43.852;25.952;2023-03-14T10:28:29;5.00;;;1.77;;
71558;SDS011;59382;43.852;25.952;2023-03-14T10:30:58;5.03;;;2.10;;
71558;SDS011;59382;43.852;25.952;2023-03-14T10:33:31;12.48;;;2.28;;
71558;SDS011;59382;43.852;25.952;2023-03-14T10:36:00;7.22;;;2.10;;
71558;SDS011;59382;43.852;25.952;2023-03-14T10:38:29;10.52;;;2.38;;
71558;SDS011;59382;43.852;25.952;2023-03-14T10:40:59;3.50;;;1.80;;
71558;SDS011;59382;43.852;25.952;2023-03-14T10:43:35;4.80;;;2.40;;
71558;SDS011;59382;43.852;25.952;2023-03-14T10:46:06;4.10;;;1.85;;
71558;SDS011;59382;43.852;25.952;2023-03-14T10:48:35;6.13;;;2.10;;
71558;SDS011;59382;43.852;25.952;2023-03-14T10:51:19;5.03;;;2.28;;
71558;SDS011;59382;43.852;25.952;2023-03-14T10:56:22;2.50;;;1.58;;
71558;SDS011;59382;43.852;25.952;2023-03-14T10:58:50;2.10;;;1.52;;
71558;SDS011;59382;43.852;25.952;2023-03-14T11:24:12;3.08;;;1.80;;
71558;SDS011;59382;43.852;25.952;2023-03-14T11:32:45;2.55;;;1.30;;
71558;SDS011;59382;43.852;25.952;2023-03-14T11:37:56;5.72;;;4.82;;
71558;SDS011;59382;43.852;25.952;2023-03-14T11:40:35;5.15;;;1.67;;
71558;SDS011;59382;43.852;25.952;2023-03-14T11:43:18;4.00;;;1.85;;
71558;SDS011;59382;43.852;25.952;2023-03-14T11:45:49;2.00;;;1.33;;
71558;SDS011;59382;43.852;25.952;2023-03-14T11:51:11;4.50;;;1.35;;
71558;SDS011;59382;43.852;25.952;2023-03-14T11:53:44;1.55;;;1.33;;
71558;SDS011;59382;43.852;25.952;2023-03-14T12:02:58;3.22;;;1.17;;
71558;SDS011;59382;43.852;25.952;2023-03-14T12:10:46;4.13;;;1.23;;
71558;SDS011;59382;43.852;25.952;2023-03-14T12:13:16;1.38;;;1.00;;
71558;SDS011;59382;43.852;25.952;2023-03-14T12:15:49;4.70;;;1.20;;
71558;SDS011;59382;43.852;25.952;2023-03-14T12:20:54;3.88;;;1.40;;
71558;SDS011;59382;43.852;25.952;2023-03-14T12:23:22;4.03;;;1.63;;
71558;SDS011;59382;43.852;25.952;2023-03-14T12:26:05;3.80;;;1.30;;
71558;SDS011;59382;43.852;25.952;2023-03-14T12:28:43;6.68;;;1.20;;
71558;SDS011;59382;43.852;25.952;2023-03-14T12:34:28;3.80;;;0.90;;
71558;SDS011;59382;43.852;25.952;2023-03-14T12:41:53;4.65;;;1.45;;
71558;SDS011;59382;43.852;25.952;2023-03-14T12:44:40;7.65;;;3.58;;
71558;SDS011;59382;43.852;25.952;2023-03-14T12:49:47;9.38;;;1.52;;
71558;SDS011;59382;43.852;25.952;2023-03-14T12:57:56;1.65;;;1.00;;
71558;SDS011;59382;43.852;25.952;2023-03-14T13:00:30;0.80;;;0.80;;
71558;SDS011;59382;43.852;25.952;2023-03-14T13:03:02;1.67;;;1.10;;
71558;SDS011;59382;43.852;25.952;2023-03-14T13:06:00;5.53;;;1.08;;
71558;SDS011;59382;43.852;25.952;2023-03-14T13:08:36;3.20;;;0.82;;
71558;SDS011;59382;43.852;25.952;2023-03-14T13:11:12;1.30;;;0.80;;
71558;SDS011;59382;43.852;25.952;2023-03-14T13:13:52;2.53;;;0.70;;
71558;SDS011;59382;43.852;25.952;2023-03-14T13:16:21;4.55;;;0.75;;
71558;SDS011;59382;43.852;25.952;2023-03-14T13:18:48;1.23;;;0.80;;
71558;SDS011;59382;43.852;25.952;2023-03-14T13:21:20;0.82;;;0.82;;
71558;SDS011;59382;43.852;25.952;2023-03-14T13:26:23;2.97;;;1.00;;
71558;SDS011;59382;43.852;25.952;2023-03-14T13:28:56;1.35;;;0.80;;
71558;SDS011;59382;43.852;25.952;2023-03-14T13:31:23;1.27;;;0.70;;
71558;SDS011;59382;43.852;25.952;2023-03-14T13:33:57;0.95;;;0.77;;
71558;SDS011;59382;43.852;25.952;2023-03-14T13:36:24;1.00;;;0.70;;
71558;SDS011;59382;43.852;25.952;2023-03-14T13:39:00;5.63;;;0.90;;
71558;SDS011;59382;43.852;25.952;2023-03-14T13:41:29;3.38;;;0.57;;
71558;SDS011;59382;43.852;25.952;2023-03-14T13:44:08;1.10;;;0.70;;
71558;SDS011;59382;43.852;25.952;2023-03-14T13:46:40;0.63;;;0.63;;
71558;SDS011;59382;43.852;25.952;2023-03-14T13:49:09;3.67;;;2.67;;
71558;SDS011;59382;43.852;25.952;2023-03-14T13:51:45;0.80;;;0.65;;
71558;SDS011;59382;43.852;25.952;2023-03-14T13:54:18;2.88;;;1.00;;
71558;SDS011;59382;43.852;25.952;2023-03-14T13:56:46;4.30;;;1.10;;
71558;SDS011;59382;43.852;25.952;2023-03-14T13:59:24;1.90;;;0.93;;
71558;SDS011;59382;43.852;25.952;2023-03-14T14:01:52;0.88;;;0.63;;
71558;SDS011;59382;43.852;25.952;2023-03-14T14:04:19;0.70;;;0.60;;
71558;SDS011;59382;43.852;25.952;2023-03-14T14:06:55;0.50;;;0.50;;
71558;SDS011;59382;43.852;25.952;2023-03-14T14:09:24;1.73;;;0.70;;
71558;SDS011;59382;43.852;25.952;2023-03-14T14:12:12;6.40;;;0.73;;
71558;SDS011;59382;43.852;25.952;2023-03-14T14:14:48;4.47;;;1.40;;
71558;SDS011;59382;43.852;25.952;2023-03-14T14:17:44;4.80;;;1.00;;
71558;SDS011;59382;43.852;25.952;2023-03-14T14:20:55;0.80;;;0.70;;
71558;SDS011;59382;43.852;25.952;2023-03-14T14:23:07;1.10;;;0.70;;
71558;SDS011;59382;43.852;25.952;2023-03-14T14:25:36;6.45;;;0.85;;
71558;SDS011;59382;43.852;25.952;2023-03-14T14:31:02;0.70;;;0.65;;
71558;SDS011;59382;43.852;25.952;2023-03-14T14:36:22;0.70;;;0.70;;
71558;SDS011;59382;43.852;25.952;2023-03-14T14:38:56;3.53;;;1.13;;
71558;SDS011;59382;43.852;25.952;2023-03-14T14:44:04;1.17;;;0.70;;
71558;SDS011;59382;43.852;25.952;2023-03-14T14:46:31;0.85;;;0.73;;
71558;SDS011;59382;43.852;25.952;2023-03-14T14:49:02;1.10;;;0.70;;
71558;SDS011;59382;43.852;25.952;2023-03-14T14:51:38;2.53;;;1.20;;
71558;SDS011;59382;43.852;25.952;2023-03-14T14:54:12;12.52;;;1.00;;
71558;SDS011;59382;43.852;25.952;2023-03-14T14:56:38;3.17;;;0.98;;
71558;SDS011;59382;43.852;25.952;2023-03-14T14:59:06;3.90;;;0.90;;
71558;SDS011;59382;43.852;25.952;2023-03-14T15:01:43;15.02;;;6.15;;
71558;SDS011;59382;43.852;25.952;2023-03-14T15:04:10;16.77;;;6.93;;
71558;SDS011;59382;43.852;25.952;2023-03-14T15:06:38;6.72;;;2.83;;
71558;SDS011;59382;43.852;25.952;2023-03-14T15:09:12;5.88;;;2.15;;
71558;SDS011;59382;43.852;25.952;2023-03-14T15:11:37;7.32;;;1.58;;
71558;SDS011;59382;43.852;25.952;2023-03-14T15:14:03;9.43;;;2.25;;
71558;SDS011;59382;43.852;25.952;2023-03-14T15:16:29;3.65;;;1.63;;
71558;SDS011;59382;43.852;25.952;2023-03-14T15:19:01;2.95;;;1.42;;
71558;SDS011;59382;43.852;25.952;2023-03-14T15:21:31;5.97;;;1.42;;
71558;SDS011;59382;43.852;25.952;2023-03-14T15:23:57;2.63;;;1.40;;
71558;SDS011;59382;43.852;25.952;2023-03-14T15:26:26;2.30;;;1.20;;
71558;SDS011;59382;43.852;25.952;2023-03-14T15:28:53;8.23;;;2.50;;
71558;SDS011;59382;43.852;25.952;2023-03-14T15:31:19;2.15;;;1.45;;
71558;SDS011;59382;43.852;25.952;2023-03-14T15:33:46;5.18;;;1.30;;
71558;SDS011;59382;43.852;25.952;2023-03-14T15:36:19;3.25;;;1.20;;
71558;SDS011;59382;43.852;25.952;2023-03-14T15:38:55;3.83;;;1.13;;
71558;SDS011;59382;43.852;25.952;2023-03-14T15:41:23;4.53;;;1.17;;
71558;SDS011;59382;43.852;25.952;2023-03-14T15:43:50;4.68;;;1.27;;
71558;SDS011;59382;43.852;25.952;2023-03-14T15:46:16;6.07;;;1.17;;
71558;SDS011;59382;43.852;25.952;2023-03-14T15:48:43;4.80;;;1.10;;
71558;SDS011;59382;43.852;25.952;2023-03-14T15:51:10;7.65;;;1.17;;
71558;SDS011;59382;43.852;25.952;2023-03-14T15:53:36;2.00;;;1.35;;
71558;SDS011;59382;43.852;25.952;2023-03-14T15:56:05;2.85;;;1.40;;
71558;SDS011;59382;43.852;25.952;2023-03-14T15:58:32;2.97;;;1.23;;
71558;SDS011;59382;43.852;25.952;2023-03-14T16:00:59;2.25;;;1.10;;
71558;SDS011;59382;43.852;25.952;2023-03-14T16:03:26;3.42;;;1.63;;
71558;SDS011;59382;43.852;25.952;2023-03-14T16:05:53;9.70;;;2.10;;
71558;SDS011;59382;43.852;25.952;2023-03-14T16:08:18;8.95;;;2.65;;
71558;SDS011;59382;43.852;25.952;2023-03-14T16:10:44;16.70;;;3.38;;
71558;SDS011;59382;43.852;25.952;2023-03-14T16:13:11;6.40;;;1.98;;
71558;SDS011;59382;43.852;25.952;2023-03-14T16:15:36;5.22;;;2.08;;
71558;SDS011;59382;43.852;25.952;2023-03-14T16:18:02;8.52;;;2.42;;